createdAt,value
2018-10-19T00:01:07.716Z,73.67
2018-10-19T00:03:35.826Z,59.88
2018-10-19T00:06:03.963Z,75.65
2018-10-19T00:08:32.143Z,56.37
2018-10-19T00:11:00.293Z,58.23
2018-10-19T00:13:28.387Z,69.03
2018-10-19T00:15:56.504Z,63.35
2018-10-19T00:18:24.712Z,65.05
2018-10-19T00:20:52.848Z,58.87
2018-10-19T00:23:20.988Z,59.67
2018-10-19T00:25:49.104Z,77.85
2018-10-19T00:28:17.235Z,68.12
2018-10-19T00:30:45.404Z,53.42
2018-10-19T00:33:13.606Z,63.40
2018-10-19T00:35:41.665Z,49.53
2018-10-19T00:38:09.795Z,74.47
2018-10-19T00:40:37.899Z,69.92
2018-10-19T00:43:06.046Z,45.40
2018-10-19T00:45:39.633Z,44.18
2018-10-19T00:48:13.272Z,57.38
2018-10-19T00:50:41.618Z,58.98
2018-10-19T00:53:10.273Z,49.53
2018-10-19T00:55:38.814Z,55.50
2018-10-19T00:58:06.938Z,49.15
2018-10-19T01:00:36.287Z,49.35
2018-10-19T01:03:04.651Z,33.90
2018-10-19T01:05:32.787Z,41.95
2018-10-19T01:08:00.923Z,43.08
2018-10-19T01:10:29.033Z,41.90
2018-10-19T01:12:57.994Z,37.63
2018-10-19T01:15:27.291Z,43.60
2018-10-19T01:17:55.488Z,30.65
2018-10-19T01:20:23.607Z,32.08
2018-10-19T01:22:51.724Z,32.42
2018-10-19T01:25:19.867Z,32.70
2018-10-19T01:27:48.025Z,24.85
2018-10-19T01:30:16.132Z,36.53
2018-10-19T01:32:44.275Z,34.35
2018-10-19T01:35:13.150Z,23.57
2018-10-19T01:37:41.352Z,28.02
2018-10-19T01:40:10.867Z,22.22
2018-10-19T01:42:39.385Z,22.58
2018-10-19T01:45:09.226Z,20.10
2018-10-19T01:47:37.632Z,24.10
2018-10-19T01:50:05.811Z,22.95
2018-10-19T01:52:33.924Z,29.95
2018-10-19T01:55:02.055Z,39.20
2018-10-19T01:57:30.213Z,39.85
2018-10-19T01:59:58.354Z,24.85
2018-10-19T02:02:26.471Z,27.22
2018-10-19T02:04:54.637Z,27.27
2018-10-19T02:07:22.742Z,25.35
2018-10-19T02:09:50.965Z,28.05
2018-10-19T02:12:19.072Z,33.83
2018-10-19T02:14:47.186Z,21.75
2018-10-19T02:17:15.403Z,20.00
2018-10-19T02:19:43.444Z,16.42
2018-10-19T02:22:11.576Z,20.82
2018-10-19T02:24:39.695Z,18.35
2018-10-19T02:27:08.240Z,20.80
2018-10-19T02:29:36.299Z,16.67
2018-10-19T02:32:04.417Z,23.40
2018-10-19T02:34:32.524Z,27.87
2018-10-19T02:37:00.629Z,20.82
2018-10-19T02:39:28.750Z,16.60
2018-10-19T02:41:56.921Z,20.15
2018-10-19T02:44:25.047Z,15.72
2018-10-19T02:46:53.158Z,16.75
2018-10-19T02:49:21.272Z,15.65
2018-10-19T02:51:49.385Z,14.73
2018-10-19T02:54:17.520Z,18.23
2018-10-19T02:56:45.616Z,22.75
2018-10-19T02:59:13.762Z,16.20
2018-10-19T03:01:41.862Z,18.60
2018-10-19T03:04:09.992Z,19.12
2018-10-19T03:06:38.095Z,18.50
2018-10-19T03:09:09.076Z,20.60
2018-10-19T03:11:37.217Z,26.05
2018-10-19T03:14:05.271Z,27.73
2018-10-19T03:16:33.389Z,24.07
2018-10-19T03:19:01.728Z,29.25
2018-10-19T03:21:29.849Z,39.13
2018-10-19T03:23:58.013Z,34.10
2018-10-19T03:26:26.189Z,25.77
2018-10-19T03:28:54.382Z,27.10
2018-10-19T03:31:22.444Z,27.95
2018-10-19T03:33:50.566Z,31.60
2018-10-19T03:36:18.840Z,33.02
2018-10-19T03:38:46.950Z,26.95
2018-10-19T03:41:15.145Z,32.45
2018-10-19T03:43:43.263Z,22.48
2018-10-19T03:46:11.475Z,26.27
2018-10-19T03:48:39.596Z,19.37
2018-10-19T03:51:07.809Z,26.57
2018-10-19T03:53:35.856Z,23.22
2018-10-19T03:56:04.020Z,23.80
2018-10-19T03:58:32.116Z,24.27
2018-10-19T04:01:00.252Z,23.90
2018-10-19T04:03:28.443Z,26.02
2018-10-19T04:05:56.620Z,26.35
2018-10-19T04:08:24.763Z,28.17
2018-10-19T04:10:52.932Z,31.65
2018-10-19T04:13:21.054Z,27.32
2018-10-19T04:15:49.190Z,29.45
2018-10-19T04:18:17.328Z,28.77
2018-10-19T04:20:45.472Z,35.10
2018-10-19T04:23:13.825Z,43.13
2018-10-19T04:25:41.906Z,43.48
2018-10-19T04:28:10.011Z,47.45
2018-10-19T04:30:38.138Z,50.80
2018-10-19T04:33:06.532Z,70.20
2018-10-19T04:35:34.635Z,53.45
2018-10-19T04:38:03.192Z,67.22
2018-10-19T04:40:31.300Z,79.77
2018-10-19T04:42:59.399Z,66.40
2018-10-19T04:45:27.538Z,70.52
2018-10-19T04:47:55.667Z,84.30
2018-10-19T04:50:23.785Z,66.42
2018-10-19T04:52:51.891Z,65.55
2018-10-19T04:55:21.176Z,57.30
2018-10-19T04:57:50.784Z,63.48
2018-10-19T05:00:20.249Z,52.85
2018-10-19T05:02:49.035Z,60.38
2018-10-19T05:05:17.217Z,66.37
2018-10-19T05:07:45.260Z,51.15
2018-10-19T05:10:13.359Z,74.80
2018-10-19T05:12:41.577Z,81.20
2018-10-19T05:15:10.660Z,58.75
2018-10-19T05:17:38.774Z,83.55
2018-10-19T05:20:08.520Z,61.77
2018-10-19T05:22:36.827Z,79.75
2018-10-19T05:25:07.014Z,63.38
2018-10-19T05:27:35.156Z,69.50
2018-10-19T05:30:03.262Z,66.22
2018-10-19T05:32:31.355Z,70.08
2018-10-19T05:35:00.297Z,69.20
2018-10-19T05:37:28.579Z,78.97
2018-10-19T05:39:56.728Z,70.47
2018-10-19T05:42:24.836Z,71.47
2018-10-19T05:44:52.971Z,58.35
2018-10-19T05:47:21.085Z,71.17
2018-10-19T05:49:49.367Z,62.53
2018-10-19T05:52:17.551Z,62.20
2018-10-19T05:54:45.705Z,63.68
2018-10-19T05:57:13.813Z,68.12
2018-10-19T05:59:41.931Z,70.40
2018-10-19T06:02:10.051Z,89.70
2018-10-19T06:04:38.172Z,81.28
2018-10-19T06:07:06.273Z,85.17
2018-10-19T06:09:34.368Z,69.37
2018-10-19T06:12:02.488Z,77.97
2018-10-19T06:14:30.581Z,60.40
2018-10-19T06:16:58.700Z,65.80
2018-10-19T06:19:26.815Z,75.75
2018-10-19T06:21:54.924Z,94.50
2018-10-19T06:24:23.031Z,80.17
2018-10-19T06:26:51.149Z,75.45
2018-10-19T06:29:19.276Z,91.70
2018-10-19T06:31:47.388Z,73.37
2018-10-19T06:34:15.487Z,69.60
2018-10-19T06:36:43.591Z,64.92
2018-10-19T06:39:12.296Z,99.22
2018-10-19T06:41:40.460Z,70.45
2018-10-19T06:44:08.922Z,61.83
2018-10-19T06:46:37.069Z,64.67
2018-10-19T06:49:05.279Z,71.30
2018-10-19T06:51:33.384Z,77.03
2018-10-19T06:54:01.484Z,52.78
2018-10-19T06:56:29.590Z,71.35
2018-10-19T06:58:57.721Z,56.30
2018-10-19T07:01:25.813Z,53.25
2018-10-19T07:03:53.948Z,53.68
2018-10-19T07:06:22.053Z,67.55
2018-10-19T07:08:50.232Z,78.33
2018-10-19T07:11:18.353Z,56.77
2018-10-19T07:13:46.459Z,70.20
2018-10-19T07:16:14.560Z,67.37
2018-10-19T07:18:42.660Z,65.78
2018-10-19T07:21:10.780Z,49.55
2018-10-19T07:23:38.871Z,57.45
2018-10-19T07:26:07.045Z,41.42
2018-10-19T07:28:35.108Z,50.60
2018-10-19T07:31:03.232Z,50.83
2018-10-19T07:33:31.349Z,44.55
2018-10-19T07:35:59.461Z,48.83
2018-10-19T07:38:27.589Z,59.55
2018-10-19T07:40:55.971Z,60.85
2018-10-19T07:43:24.107Z,68.45
2018-10-19T07:45:52.224Z,48.78
2018-10-19T07:48:20.356Z,51.13
2018-10-19T07:50:48.503Z,53.05
2018-10-19T07:53:16.636Z,55.70
2018-10-19T07:55:44.724Z,65.62
2018-10-19T07:58:12.876Z,52.10
2018-10-19T08:00:40.987Z,54.45
2018-10-19T08:03:09.103Z,45.50
2018-10-19T08:05:37.219Z,60.15
2018-10-19T08:08:05.402Z,53.70
2018-10-19T08:10:33.592Z,53.35
2018-10-19T08:13:01.719Z,60.17
2018-10-19T08:15:29.811Z,50.85
2018-10-19T08:17:57.929Z,48.05
2018-10-19T08:20:26.037Z,47.50
2018-10-19T08:22:54.403Z,46.33
2018-10-19T08:25:22.480Z,48.13
2018-10-19T08:27:50.581Z,39.88
2018-10-19T08:30:18.711Z,48.87
2018-10-19T08:32:46.817Z,62.27
2018-10-19T08:35:14.979Z,48.50
2018-10-19T08:37:43.047Z,40.75
2018-10-19T08:40:11.168Z,43.48
2018-10-19T08:42:39.285Z,58.48
2018-10-19T08:45:07.606Z,60.28
2018-10-19T08:47:35.699Z,60.30
2018-10-19T08:50:03.813Z,61.08
2018-10-19T08:52:31.915Z,54.60
2018-10-19T08:55:00.068Z,56.02
2018-10-19T08:57:28.132Z,61.35
2018-10-19T08:59:56.244Z,50.15
2018-10-19T09:02:24.363Z,59.53
2018-10-19T09:04:52.509Z,49.65
2018-10-19T09:07:20.619Z,55.95
2018-10-19T09:09:48.726Z,48.85
2018-10-19T09:12:16.822Z,54.67
2018-10-19T09:14:51.279Z,53.42
2018-10-19T09:17:25.841Z,49.03
2018-10-19T09:19:54.234Z,61.92
2018-10-19T09:22:22.395Z,46.73
2018-10-19T09:24:50.872Z,51.92
2018-10-19T09:27:19.144Z,46.68
2018-10-19T09:29:47.436Z,47.38
2018-10-19T09:32:15.674Z,46.37
2018-10-19T09:34:43.792Z,47.73
2018-10-19T09:37:12.574Z,50.50
2018-10-19T09:39:40.729Z,36.70
2018-10-19T09:42:09.369Z,62.60
2018-10-19T09:44:37.479Z,48.95
2018-10-19T09:47:05.739Z,50.15
2018-10-19T09:49:33.836Z,48.42
2018-10-19T09:52:01.944Z,43.30
2018-10-19T09:54:30.083Z,45.55
2018-10-19T09:56:58.269Z,37.20
2018-10-19T09:59:26.338Z,36.00
2018-10-19T10:01:54.483Z,31.30
2018-10-19T10:04:22.561Z,32.25
2018-10-19T10:06:50.671Z,32.17
2018-10-19T10:09:18.802Z,34.67
2018-10-19T10:11:46.916Z,34.85
2018-10-19T10:14:15.021Z,37.83
2018-10-19T10:16:43.115Z,28.65
2018-10-19T10:19:11.293Z,30.05
2018-10-19T10:21:39.356Z,29.18
2018-10-19T10:24:07.844Z,27.15
2018-10-19T10:26:36.095Z,30.92
2018-10-19T10:29:04.248Z,24.57
2018-10-19T10:31:32.464Z,25.27
2018-10-19T10:34:00.638Z,22.00
2018-10-19T10:36:28.728Z,31.25
2018-10-19T10:38:56.920Z,27.55
2018-10-19T10:41:24.983Z,28.17
2018-10-19T10:43:53.104Z,22.62
2018-10-19T10:46:21.216Z,28.45
2018-10-19T10:48:49.356Z,26.55
2018-10-19T10:51:17.469Z,29.45
2018-10-19T10:53:45.576Z,22.98
2018-10-19T10:56:13.694Z,29.95
2018-10-19T10:58:41.819Z,17.60
2018-10-19T11:01:09.995Z,26.55
2018-10-19T11:03:38.088Z,27.80
2018-10-19T11:06:06.196Z,37.98
2018-10-19T11:08:34.314Z,36.35
2018-10-19T11:11:10.005Z,30.17
2018-10-19T11:13:38.855Z,29.12
2018-10-19T11:16:07.264Z,34.88
2018-10-19T11:18:35.583Z,37.08
2018-10-19T11:21:03.895Z,27.90
2018-10-19T11:23:32.000Z,42.33
2018-10-19T11:26:00.107Z,36.17
2018-10-19T11:28:28.333Z,33.13
2018-10-19T11:30:56.443Z,29.18
2018-10-19T11:33:24.589Z,29.40
2018-10-19T11:35:52.692Z,30.65
2018-10-19T11:38:20.803Z,35.40
2018-10-19T11:40:48.930Z,36.85
2018-10-19T11:43:17.106Z,29.15
2018-10-19T11:45:45.171Z,31.33
2018-10-19T11:48:13.293Z,31.12
2018-10-19T11:50:41.412Z,34.70
2018-10-19T11:53:09.540Z,28.50
2018-10-19T11:55:37.640Z,30.50
2018-10-19T11:58:05.870Z,30.35
2018-10-19T12:00:33.950Z,34.23
2018-10-19T12:03:02.052Z,37.75
2018-10-19T12:05:30.157Z,30.70
2018-10-19T12:07:58.305Z,36.75
2018-10-19T12:10:26.425Z,33.25
2018-10-19T12:12:54.571Z,32.88
2018-10-19T12:15:22.651Z,30.08
2018-10-19T12:17:50.743Z,30.95
2018-10-19T12:20:19.346Z,30.82
2018-10-19T12:22:47.455Z,36.28
2018-10-19T12:25:16.460Z,36.88
2018-10-19T12:27:44.462Z,36.93
2018-10-19T12:30:13.136Z,40.63
2018-10-19T12:32:41.439Z,43.92
2018-10-19T12:35:10.869Z,50.52
2018-10-19T12:37:39.058Z,41.95
2018-10-19T12:40:07.912Z,55.17
2018-10-19T12:42:36.388Z,53.90
2018-10-19T12:45:05.184Z,51.25
2018-10-19T12:47:36.767Z,46.92
2018-10-19T12:50:05.195Z,51.50
2018-10-19T12:52:33.325Z,57.40
2018-10-19T12:55:01.469Z,54.35
2018-10-19T12:57:29.626Z,54.67
2018-10-19T12:59:57.708Z,47.75
2018-10-19T13:02:25.973Z,60.38
2018-10-19T13:04:54.080Z,56.70
2018-10-19T13:07:22.415Z,48.45
2018-10-19T13:09:50.609Z,63.60
2018-10-19T13:12:18.746Z,50.67
2018-10-19T13:14:46.858Z,55.58
2018-10-19T13:17:14.985Z,47.23
2018-10-19T13:19:43.096Z,56.55
2018-10-19T13:22:11.200Z,51.37
2018-10-19T13:24:39.316Z,47.35
2018-10-19T13:27:07.526Z,57.45
2018-10-19T13:29:35.633Z,48.98
2018-10-19T13:32:03.812Z,65.52
2018-10-19T13:34:31.926Z,47.65
2018-10-19T13:37:00.024Z,63.90
2018-10-19T13:39:28.275Z,55.03
2018-10-19T13:41:56.376Z,55.73
2018-10-19T13:44:24.598Z,43.25
2018-10-19T13:46:53.551Z,48.45
2018-10-19T13:49:21.696Z,64.35
2018-10-19T13:51:49.809Z,53.28
2018-10-19T13:54:17.928Z,56.95
2018-10-19T13:56:46.022Z,40.58
2018-10-19T13:59:14.262Z,45.25
2018-10-19T14:01:42.307Z,47.62
2018-10-19T14:04:10.436Z,52.40
2018-10-19T14:06:38.532Z,53.78
2018-10-19T14:09:08.022Z,43.52
2018-10-19T14:11:36.112Z,37.70
2018-10-19T14:14:04.516Z,47.70
2018-10-19T14:16:32.691Z,46.40
2018-10-19T14:19:01.018Z,39.27
2018-10-19T14:21:29.054Z,47.23
2018-10-19T14:23:57.193Z,42.58
2018-10-19T14:26:25.334Z,33.48
2018-10-19T14:28:53.445Z,40.08
2018-10-19T14:31:21.572Z,35.35
2018-10-19T14:33:49.735Z,34.05
2018-10-19T14:36:17.844Z,47.83
2018-10-19T14:38:45.943Z,42.15
2018-10-19T14:41:14.137Z,46.85
2018-10-19T14:43:42.335Z,38.35
2018-10-19T14:46:10.435Z,36.65
2018-10-19T14:48:38.567Z,40.05
2018-10-19T14:51:06.764Z,45.40
2018-10-19T14:53:34.912Z,41.58
2018-10-19T14:56:03.026Z,44.88
2018-10-19T14:58:31.146Z,32.23
2018-10-19T15:00:59.438Z,37.95
2018-10-19T15:03:27.536Z,37.45
2018-10-19T15:05:55.652Z,38.08
2018-10-19T15:08:23.868Z,34.25
2018-10-19T15:10:52.202Z,43.48
2018-10-19T15:13:20.142Z,43.70
2018-10-19T15:15:48.290Z,38.60
2018-10-19T15:18:16.519Z,44.85
2018-10-19T15:20:44.765Z,33.60
2018-10-19T15:23:12.912Z,36.00
2018-10-19T15:25:41.191Z,32.17
2018-10-19T15:28:09.375Z,40.30
2018-10-19T15:30:37.483Z,42.35
2018-10-19T15:33:06.216Z,32.20
2018-10-19T15:35:34.271Z,34.88
2018-10-19T15:38:02.519Z,36.05
2018-10-19T15:40:31.557Z,34.58
2018-10-19T15:42:59.680Z,32.03
2018-10-19T15:45:27.851Z,32.73
2018-10-19T15:47:56.009Z,38.58
2018-10-19T15:50:24.112Z,33.40
2018-10-19T15:52:52.208Z,39.05
2018-10-19T15:55:20.452Z,40.65
2018-10-19T15:57:48.679Z,40.45
2018-10-19T16:00:16.833Z,25.70
2018-10-19T16:02:44.973Z,36.77
2018-10-19T16:05:13.091Z,41.15
2018-10-19T16:07:41.232Z,42.58
2018-10-19T16:10:10.384Z,32.67
2018-10-19T16:12:39.311Z,34.53
2018-10-19T16:15:08.847Z,40.03
2018-10-19T16:17:36.998Z,39.80
2018-10-19T16:20:06.684Z,29.60
2018-10-19T16:22:35.316Z,30.48
2018-10-19T16:25:03.442Z,38.73
2018-10-19T16:27:31.619Z,36.23
2018-10-19T16:30:09.528Z,30.20
2018-10-19T16:32:38.125Z,28.55
2018-10-19T16:35:06.254Z,34.27
2018-10-19T16:37:34.580Z,28.35
2018-10-19T16:40:02.708Z,28.60
2018-10-19T16:42:30.815Z,32.23
2018-10-19T16:44:58.921Z,29.90
2018-10-19T16:47:27.036Z,29.90
2018-10-19T16:49:55.156Z,32.15
2018-10-19T16:52:23.283Z,35.50
2018-10-19T16:54:51.404Z,29.82
2018-10-19T16:57:19.516Z,24.98
2018-10-19T16:59:47.741Z,35.23
2018-10-19T17:02:16.038Z,36.80
2018-10-19T17:04:45.189Z,29.98
2018-10-19T17:07:14.132Z,31.80
2018-10-19T17:09:42.256Z,34.85
2018-10-19T17:12:10.488Z,34.92
2018-10-19T17:14:38.544Z,34.05
2018-10-19T17:17:06.928Z,34.55
2018-10-19T17:19:36.509Z,37.88
2018-10-19T17:22:05.034Z,36.20
2018-10-19T17:24:33.150Z,35.23
2018-10-19T17:27:01.277Z,29.75
2018-10-19T17:29:29.392Z,35.63
2018-10-19T17:31:57.515Z,35.30
2018-10-19T17:34:25.632Z,35.35
2018-10-19T17:36:53.801Z,24.82
2018-10-19T17:39:21.887Z,33.92
2018-10-19T17:41:50.037Z,45.63
2018-10-19T17:44:18.263Z,33.23
2018-10-19T17:46:46.372Z,41.53
2018-10-19T17:49:14.722Z,31.00
2018-10-19T17:51:43.505Z,34.63
2018-10-19T17:54:11.898Z,29.70
2018-10-19T17:56:40.230Z,30.80
2018-10-19T17:59:08.379Z,32.98
2018-10-19T18:01:36.536Z,37.05
2018-10-19T18:04:04.763Z,28.52
2018-10-19T18:06:32.949Z,33.30
2018-10-19T18:09:01.096Z,44.18
2018-10-19T18:11:29.189Z,32.50
2018-10-19T18:13:57.347Z,36.05
2018-10-19T18:16:28.501Z,32.50
2018-10-19T18:18:56.891Z,32.58
2018-10-19T18:21:25.054Z,36.70
2018-10-19T18:23:53.144Z,30.02
2018-10-19T18:26:21.244Z,26.48
2018-10-19T18:28:49.366Z,34.20
2018-10-19T18:31:17.529Z,39.18
2018-10-19T18:33:45.636Z,35.85
2018-10-19T18:36:14.001Z,37.17
2018-10-19T18:38:42.108Z,32.98
2018-10-19T18:41:10.367Z,28.12
2018-10-19T18:43:38.427Z,27.93
2018-10-19T18:46:06.645Z,41.28
2018-10-19T18:48:34.752Z,32.03
2018-10-19T18:51:02.956Z,40.98
2018-10-19T18:53:31.104Z,48.70
2018-10-19T18:55:59.232Z,38.55
2018-10-19T18:58:27.340Z,41.77
2018-10-19T19:00:55.590Z,39.70
2018-10-19T19:03:23.734Z,30.50
2018-10-19T19:05:51.826Z,34.18
2018-10-19T19:08:19.936Z,34.98
2018-10-19T19:10:48.032Z,33.23
2018-10-19T19:13:21.623Z,37.83
2018-10-19T19:15:49.730Z,43.20
2018-10-19T19:18:17.832Z,29.32
2018-10-19T19:20:45.957Z,26.60
2018-10-19T19:23:14.095Z,28.07
2018-10-19T19:25:47.672Z,28.25
2018-10-19T19:28:15.780Z,33.90
2018-10-19T19:30:43.883Z,31.93
2018-10-19T19:33:17.343Z,31.70
2018-10-19T19:35:45.444Z,28.23
2018-10-19T19:38:13.624Z,27.58
2018-10-19T19:40:47.060Z,28.40
2018-10-19T19:43:15.152Z,41.25
2018-10-19T19:45:43.251Z,26.35
2018-10-19T19:48:16.852Z,29.12
2018-10-19T19:50:45.091Z,27.10
2018-10-19T19:53:13.263Z,31.25
2018-10-19T19:55:41.331Z,42.65
2018-10-19T19:58:09.450Z,25.95
2018-10-19T20:00:37.556Z,30.75
2018-10-19T20:03:05.755Z,36.98
2018-10-19T20:05:33.863Z,39.50
2018-10-19T20:08:02.153Z,29.77
2018-10-19T20:10:30.199Z,28.60
2018-10-19T20:12:58.308Z,33.50
2018-10-19T20:15:26.404Z,27.93
2018-10-19T20:17:54.559Z,24.85
2018-10-19T20:20:22.676Z,36.17
2018-10-19T20:22:50.789Z,40.45
2018-10-19T20:25:18.904Z,36.35
2018-10-19T20:27:47.004Z,29.37
2018-10-19T20:30:15.123Z,31.23
2018-10-19T20:32:43.220Z,36.70
2018-10-19T20:35:11.527Z,26.15
2018-10-19T20:37:39.467Z,33.15
2018-10-19T20:40:07.687Z,40.10
2018-10-19T20:42:35.816Z,30.88
2018-10-19T20:45:04.428Z,26.90
2018-10-19T20:47:32.527Z,45.20
2018-10-19T20:50:00.793Z,39.60
2018-10-19T20:52:28.938Z,26.50
2018-10-19T20:54:57.145Z,37.38
2018-10-19T20:57:25.276Z,25.02
2018-10-19T20:59:53.408Z,28.87
2018-10-19T21:02:21.630Z,31.50
2018-10-19T21:04:49.920Z,38.98
2018-10-19T21:07:18.323Z,34.70
2018-10-19T21:09:46.528Z,29.42
2018-10-19T21:12:14.660Z,28.40
2018-10-19T21:14:42.792Z,37.78
2018-10-19T21:17:10.917Z,38.95
2018-10-19T21:19:39.047Z,35.08
2018-10-19T21:22:07.249Z,37.00
2018-10-19T21:24:35.400Z,25.75
2018-10-19T21:27:03.530Z,34.90
2018-10-19T21:29:31.826Z,39.90
2018-10-19T21:32:00.007Z,29.60
2018-10-19T21:34:28.110Z,28.15
2018-10-19T21:36:56.327Z,30.97
2018-10-19T21:39:24.494Z,31.57
2018-10-19T21:41:52.571Z,29.12
2018-10-19T21:44:20.740Z,27.30
2018-10-19T21:46:48.854Z,31.48
2018-10-19T21:49:17.084Z,27.82
2018-10-19T21:51:45.296Z,28.73
2018-10-19T21:54:13.327Z,34.25
2018-10-19T21:56:41.423Z,35.63
2018-10-19T21:59:09.646Z,34.78
2018-10-19T22:01:37.675Z,38.80
2018-10-19T22:04:06.076Z,25.77
2018-10-19T22:06:34.208Z,28.80
2018-10-19T22:09:02.324Z,25.37
2018-10-19T22:11:30.432Z,26.10
2018-10-19T22:13:58.536Z,33.78
2018-10-19T22:16:26.653Z,30.00
2018-10-19T22:18:54.780Z,31.62
2018-10-19T22:21:22.871Z,25.15
2018-10-19T22:23:50.963Z,25.37
2018-10-19T22:26:19.379Z,24.27
2018-10-19T22:28:47.408Z,30.25
2018-10-19T22:31:15.521Z,25.20
2018-10-19T22:33:43.671Z,25.30
2018-10-19T22:36:11.769Z,28.50
2018-10-19T22:38:39.896Z,22.82
2018-10-19T22:41:08.018Z,33.50
2018-10-19T22:43:36.105Z,23.67
2018-10-19T22:46:04.247Z,30.52
2018-10-19T22:48:32.391Z,25.00
2018-10-19T22:51:00.494Z,23.55
2018-10-19T22:53:28.707Z,22.55
2018-10-19T22:55:56.811Z,30.50
2018-10-19T22:58:24.908Z,25.43
2018-10-19T23:00:53.170Z,26.65
2018-10-19T23:03:21.276Z,25.32
2018-10-19T23:05:49.435Z,24.55
2018-10-19T23:08:17.731Z,27.80
2018-10-19T23:10:45.914Z,31.55
2018-10-19T23:13:14.150Z,25.00
2018-10-19T23:15:42.275Z,32.93
2018-10-19T23:18:10.376Z,30.43
2018-10-19T23:20:38.490Z,33.30
2018-10-19T23:23:06.635Z,27.87
2018-10-19T23:25:34.723Z,29.35
2018-10-19T23:28:02.846Z,32.08
2018-10-19T23:30:31.056Z,27.90
2018-10-19T23:32:59.120Z,24.50
2018-10-19T23:35:27.221Z,25.08
2018-10-19T23:37:55.338Z,32.28
2018-10-19T23:40:23.443Z,22.52
2018-10-19T23:42:51.552Z,33.48
2018-10-19T23:45:19.664Z,30.82
2018-10-19T23:47:47.759Z,32.70
2018-10-19T23:50:15.868Z,26.48
2018-10-19T23:52:43.988Z,26.90
2018-10-19T23:55:12.161Z,31.30
2018-10-19T23:57:40.232Z,27.27
